createdAt,value
2022-11-24T00:00:30.475Z,93.51
2022-11-24T00:02:57.095Z,93.49
2022-11-24T00:05:23.696Z,93.36
2022-11-24T00:07:50.327Z,93.69
2022-11-24T00:10:17.154Z,93.02
2022-11-24T00:12:43.630Z,93.23
2022-11-24T00:15:10.257Z,93.69
2022-11-24T00:17:36.706Z,93.58
2022-11-24T00:20:03.898Z,93.68
2022-11-24T00:22:30.716Z,93.88
2022-11-24T00:24:57.206Z,94.11
2022-11-24T00:27:23.652Z,94.22
2022-11-24T00:29:50.145Z,94.21
2022-11-24T00:32:16.625Z,94.65
2022-11-24T00:34:43.156Z,94.78
2022-11-24T00:37:09.624Z,94.65
2022-11-24T00:39:36.559Z,94.25
2022-11-24T00:42:03.297Z,94.23
2022-11-24T00:44:29.877Z,94.81
2022-11-24T00:46:56.602Z,95.20
2022-11-24T00:49:23.132Z,95.73
2022-11-24T00:51:49.596Z,95.73
2022-11-24T00:54:16.238Z,95.52
2022-11-24T00:56:42.909Z,95.60
2022-11-24T00:59:09.697Z,95.82
2022-11-24T01:01:36.442Z,96.13
2022-11-24T01:04:03.768Z,96.18
2022-11-24T01:06:31.213Z,95.95
2022-11-24T01:08:58.052Z,95.84
2022-11-24T01:11:54.352Z,96.03
2022-11-24T01:14:25.104Z,96.22
2022-11-24T01:16:51.802Z,96.18
2022-11-24T01:19:19.160Z,96.57
2022-11-24T01:21:45.809Z,96.70
2022-11-24T01:24:13.245Z,96.66
2022-11-24T01:26:40.029Z,96.97
2022-11-24T01:29:06.516Z,96.86
2022-11-24T01:31:33.220Z,97.11
2022-11-24T01:33:59.692Z,97.08
2022-11-24T01:36:26.161Z,97.67
2022-11-24T01:38:52.643Z,97.73
2022-11-24T01:41:25.573Z,98.05
2022-11-24T01:43:54.052Z,97.86
2022-11-24T01:46:34.008Z,97.87
2022-11-24T01:49:15.141Z,98.39
2022-11-24T01:51:46.308Z,98.46
2022-11-24T01:54:24.834Z,98.12
2022-11-24T01:56:56.623Z,98.38
2022-11-24T01:59:24.120Z,98.80
2022-11-24T02:01:51.700Z,98.40
2022-11-24T02:04:24.313Z,98.89
2022-11-24T02:06:52.613Z,98.79
2022-11-24T02:09:25.322Z,98.74
2022-11-24T02:11:54.712Z,98.88
2022-11-24T02:14:23.806Z,98.94
2022-11-24T02:16:51.411Z,98.91
2022-11-24T02:19:31.635Z,98.71
2022-11-24T02:21:58.667Z,98.48
2022-11-24T02:24:39.488Z,98.07
2022-11-24T02:27:06.084Z,98.15
2022-11-24T02:29:32.735Z,97.82
2022-11-24T02:32:03.277Z,98.21
2022-11-24T02:34:29.873Z,97.42
2022-11-24T02:36:56.345Z,97.88
2022-11-24T02:39:22.813Z,97.94
2022-11-24T02:41:53.784Z,97.66
2022-11-24T02:44:24.331Z,97.70
2022-11-24T02:47:01.754Z,97.95
2022-11-24T02:49:28.399Z,98.05
2022-11-24T02:51:55.015Z,98.13
2022-11-24T02:54:21.473Z,97.74
2022-11-24T02:56:47.920Z,97.83
2022-11-24T02:59:14.712Z,98.26
2022-11-24T03:01:41.347Z,97.99
2022-11-24T03:04:07.925Z,97.58
2022-11-24T03:06:34.427Z,97.96
2022-11-24T03:09:01.147Z,97.72
2022-11-24T03:11:27.582Z,98.22
2022-11-24T03:13:54.066Z,97.81
2022-11-24T03:16:20.604Z,98.00
2022-11-24T03:18:48.246Z,97.41
2022-11-24T03:21:14.698Z,97.12
2022-11-24T03:23:41.151Z,97.88
2022-11-24T03:26:13.422Z,98.20
2022-11-24T03:28:40.266Z,97.38
2022-11-24T03:31:07.758Z,97.53
2022-11-24T03:33:34.818Z,98.16
2022-11-24T03:36:01.974Z,98.01
2022-11-24T03:38:28.641Z,98.01
2022-11-24T03:40:55.133Z,97.92
2022-11-24T03:43:21.583Z,98.48
2022-11-24T03:45:49.356Z,98.30
2022-11-24T03:48:17.533Z,97.94
2022-11-24T03:50:51.953Z,98.23
2022-11-24T03:53:18.392Z,98.05
2022-11-24T03:55:44.828Z,97.88
2022-11-24T03:58:11.448Z,98.00
2022-11-24T04:00:37.957Z,98.41
2022-11-24T04:03:04.465Z,98.32
2022-11-24T04:05:31.136Z,98.21
2022-11-24T04:07:57.712Z,98.24
2022-11-24T04:10:25.040Z,98.30
2022-11-24T04:12:51.566Z,98.60
2022-11-24T04:15:19.518Z,98.66
2022-11-24T04:17:46.981Z,98.71
2022-11-24T04:20:14.249Z,98.65
2022-11-24T04:22:40.989Z,98.75
2022-11-24T04:25:09.169Z,98.96
2022-11-24T04:27:36.780Z,98.80
2022-11-24T04:30:08.728Z,99.02
2022-11-24T04:32:35.969Z,98.71
2022-11-24T04:35:04.601Z,98.70
2022-11-24T04:37:31.380Z,98.70
2022-11-24T04:39:57.876Z,99.22
2022-11-24T04:42:24.574Z,99.84
2022-11-24T04:44:51.040Z,99.70
2022-11-24T04:47:21.292Z,99.50
2022-11-24T04:49:49.074Z,99.68
2022-11-24T04:52:21.006Z,99.62
2022-11-24T04:54:48.621Z,99.79
2022-11-24T04:57:25.737Z,99.72
2022-11-24T04:59:53.527Z,99.77
2022-11-24T05:02:20.269Z,99.92
2022-11-24T05:04:47.131Z,99.93
2022-11-24T05:07:18.781Z,100.00
2022-11-24T05:10:12.604Z,99.92
2022-11-24T05:12:39.442Z,99.57
2022-11-24T05:15:06.862Z,99.87
2022-11-24T05:17:36.448Z,99.93
2022-11-24T05:20:06.122Z,100.00
2022-11-24T05:22:32.704Z,99.67
2022-11-24T05:24:59.389Z,99.60
2022-11-24T05:27:26.086Z,99.71
2022-11-24T05:29:52.559Z,99.94
2022-11-24T05:32:19.031Z,100.00
2022-11-24T05:34:45.531Z,100.00
2022-11-24T05:37:12.007Z,100.00
2022-11-24T05:39:38.488Z,100.00
2022-11-24T05:42:25.508Z,100.00
2022-11-24T05:44:52.549Z,100.00
2022-11-24T05:47:19.832Z,100.00
2022-11-24T05:49:46.765Z,100.00
2022-11-24T05:52:13.730Z,100.00
2022-11-24T05:54:40.222Z,100.00
2022-11-24T05:57:06.882Z,100.00
2022-11-24T05:59:33.861Z,100.00
2022-11-24T06:02:00.387Z,100.00
2022-11-24T06:04:27.884Z,100.00
2022-11-24T06:06:54.467Z,100.00
2022-11-24T06:09:21.136Z,100.00
2022-11-24T06:11:48.277Z,100.00
2022-11-24T06:14:14.873Z,100.00
2022-11-24T06:16:41.588Z,100.00
2022-11-24T06:19:10.495Z,100.00
2022-11-24T06:21:37.307Z,100.00
2022-11-24T06:24:04.663Z,100.00
2022-11-24T06:26:31.794Z,100.00
2022-11-24T06:28:59.389Z,100.00
2022-11-24T06:31:26.137Z,100.00
2022-11-24T06:33:53.198Z,100.00
2022-11-24T06:36:19.672Z,99.84
2022-11-24T06:38:46.101Z,100.00
2022-11-24T06:41:15.444Z,100.00
2022-11-24T06:43:42.048Z,99.67
2022-11-24T06:46:08.687Z,99.66
2022-11-24T06:48:35.853Z,100.00
2022-11-24T06:51:06.371Z,100.00
2022-11-24T06:53:38.300Z,99.94
2022-11-24T06:56:15.715Z,99.68
2022-11-24T06:58:48.429Z,99.29
2022-11-24T07:01:20.162Z,99.43
2022-11-24T07:03:48.418Z,100.00
2022-11-24T07:06:16.315Z,99.54
2022-11-24T07:08:43.020Z,99.90
2022-11-24T07:11:15.411Z,99.70
2022-11-24T07:13:43.048Z,99.68
2022-11-24T07:16:26.501Z,99.64
2022-11-24T07:18:54.276Z,99.51
2022-11-24T07:21:22.561Z,99.90
2022-11-24T07:23:54.607Z,99.73
2022-11-24T07:26:22.319Z,99.87
2022-11-24T07:28:48.981Z,99.61
2022-11-24T07:31:18.890Z,99.82
2022-11-24T07:33:53.296Z,99.50
2022-11-24T07:36:20.156Z,99.26
2022-11-24T07:38:46.750Z,99.30
2022-11-24T07:41:15.388Z,99.37
2022-11-24T07:43:42.065Z,99.16
2022-11-24T07:46:11.628Z,99.42
2022-11-24T07:48:38.185Z,99.06
2022-11-24T07:51:05.888Z,99.47
2022-11-24T07:53:33.366Z,99.52
2022-11-24T07:56:02.262Z,99.35
2022-11-24T07:58:32.945Z,98.36
2022-11-24T08:01:00.981Z,98.43
2022-11-24T08:03:27.962Z,98.46
2022-11-24T08:06:22.270Z,98.70
2022-11-24T08:08:42.479Z,98.79
2022-11-24T08:11:14.384Z,98.82
2022-11-24T08:13:41.331Z,98.52
2022-11-24T08:16:10.217Z,98.30
2022-11-24T08:18:37.537Z,98.41
2022-11-24T08:21:05.091Z,98.45
2022-11-24T08:23:32.550Z,99.22
2022-11-24T08:26:05.027Z,98.83
2022-11-24T08:28:32.369Z,98.94
2022-11-24T08:31:07.628Z,98.45
2022-11-24T08:33:34.957Z,98.32
2022-11-24T08:36:12.828Z,98.02
2022-11-24T08:38:39.914Z,97.31
2022-11-24T08:41:09.751Z,97.45
2022-11-24T08:43:36.803Z,97.42
2022-11-24T08:46:11.421Z,97.58
2022-11-24T08:48:38.138Z,97.24
2022-11-24T08:51:13.145Z,97.33
2022-11-24T08:53:41.016Z,97.44
2022-11-24T08:56:08.984Z,97.85
2022-11-24T08:58:36.271Z,97.72
2022-11-24T09:01:10.452Z,97.83
2022-11-24T09:03:43.551Z,97.72
2022-11-24T09:06:16.776Z,97.70
2022-11-24T09:08:43.235Z,97.80
2022-11-24T09:11:12.754Z,98.11
2022-11-24T09:13:40.075Z,97.70
2022-11-24T09:16:15.798Z,97.85
2022-11-24T09:18:42.979Z,97.82
2022-11-24T09:21:20.862Z,98.21
2022-11-24T09:23:49.094Z,98.08
2022-11-24T09:26:18.468Z,97.91
2022-11-24T09:28:45.737Z,97.61
2022-11-24T09:31:14.508Z,97.33
2022-11-24T09:33:41.427Z,97.37
2022-11-24T09:36:08.492Z,96.83
2022-11-24T09:38:35.589Z,97.06
2022-11-24T09:41:26.536Z,97.30
2022-11-24T09:44:20.773Z,96.77
2022-11-24T09:47:05.652Z,96.95
2022-11-24T09:50:01.259Z,96.78
2022-11-24T09:53:05.493Z,95.72
2022-11-24T09:55:39.588Z,94.56
2022-11-24T09:58:32.636Z,92.15
2022-11-24T10:01:04.129Z,91.90
2022-11-24T10:03:41.870Z,92.14
2022-11-24T10:06:48.097Z,91.42
2022-11-24T10:09:23.870Z,91.62
2022-11-24T10:12:15.707Z,90.83
2022-11-24T10:15:01.107Z,90.16
2022-11-24T10:17:46.863Z,90.13
2022-11-24T10:20:45.644Z,90.13
2022-11-24T10:23:24.304Z,90.10
2022-11-24T10:25:58.088Z,89.91
2022-11-24T10:28:53.613Z,89.89
2022-11-24T10:31:32.485Z,89.84
2022-11-24T10:34:04.086Z,87.53
2022-11-24T10:36:53.192Z,86.74
2022-11-24T10:39:26.720Z,85.84
2022-11-24T10:42:23.727Z,85.03
2022-11-24T10:45:00.531Z,85.81
2022-11-24T10:47:27.771Z,84.19
2022-11-24T10:50:20.593Z,84.61
2022-11-24T10:52:55.202Z,83.09
2022-11-24T10:55:21.837Z,83.79
2022-11-24T10:57:48.382Z,84.27
2022-11-24T11:00:21.174Z,83.63
2022-11-24T11:02:49.885Z,84.27
2022-11-24T11:05:31.525Z,84.69
2022-11-24T11:08:31.612Z,82.59
2022-11-24T11:11:16.726Z,82.46
2022-11-24T11:13:56.917Z,82.27
2022-11-24T11:16:46.067Z,82.40
2022-11-24T11:20:01.821Z,82.01
2022-11-24T11:22:36.669Z,82.76
2022-11-24T11:25:15.183Z,82.87
2022-11-24T11:27:42.502Z,83.88
2022-11-24T11:36:13.956Z,83.90
2022-11-24T11:38:42.852Z,83.72
2022-11-24T11:41:21.813Z,83.56
2022-11-24T11:43:54.570Z,83.05
2022-11-24T11:46:21.244Z,82.45
2022-11-24T11:48:49.015Z,82.83
2022-11-24T11:51:45.152Z,82.16
2022-11-24T11:54:49.701Z,82.29
2022-11-24T11:57:45.445Z,81.97
2022-11-24T12:00:22.311Z,82.05
2022-11-24T12:03:00.642Z,82.39
2022-11-24T12:05:42.008Z,82.18
2022-11-24T12:08:22.402Z,81.94
2022-11-24T12:11:14.737Z,82.26
2022-11-24T12:13:54.847Z,83.28
2022-11-24T12:16:33.983Z,83.27
2022-11-24T12:19:19.608Z,83.24
2022-11-24T12:22:04.699Z,83.85
2022-11-24T12:25:02.816Z,84.64
2022-11-24T12:27:39.636Z,84.82
2022-11-24T12:30:20.527Z,84.80
2022-11-24T12:33:08.825Z,84.89
2022-11-24T12:35:48.667Z,85.72
2022-11-24T12:38:33.999Z,84.91
2022-11-24T12:41:40.952Z,85.99
2022-11-24T12:44:35.399Z,85.81
2022-11-24T12:47:18.285Z,85.52
2022-11-24T12:50:11.006Z,86.13
2022-11-24T12:53:08.067Z,86.56
2022-11-24T12:55:34.862Z,86.50
2022-11-24T12:58:31.299Z,86.31
2022-11-24T13:01:18.449Z,86.27
2022-11-24T13:03:51.040Z,85.87
2022-11-24T13:06:26.640Z,86.29
2022-11-24T13:08:53.460Z,87.07
2022-11-24T13:11:22.931Z,86.98
2022-11-24T13:14:27.831Z,86.57
2022-11-24T13:17:27.964Z,87.21
2022-11-24T13:19:43.433Z,87.75
2022-11-24T13:22:15.518Z,87.20
2022-11-24T13:24:43.016Z,87.36
2022-11-24T13:27:15.833Z,87.27
2022-11-24T13:29:44.443Z,87.10
2022-11-24T13:32:11.767Z,87.00
2022-11-24T13:34:42.614Z,87.62
2022-11-24T13:37:35.047Z,87.37
2022-11-24T13:40:11.997Z,87.69
2022-11-24T13:43:02.951Z,87.47
2022-11-24T13:45:50.558Z,87.99
2022-11-24T13:48:20.222Z,88.02
2022-11-24T13:50:50.300Z,87.57
2022-11-24T13:53:36.967Z,88.15
2022-11-24T13:56:12.591Z,88.93
2022-11-24T13:58:41.708Z,89.35
2022-11-24T14:01:30.599Z,89.56
2022-11-24T14:06:54.853Z,89.49
2022-11-24T14:09:31.433Z,89.63
2022-11-24T14:12:13.348Z,89.33
2022-11-24T14:14:40.841Z,89.11
2022-11-24T14:17:13.384Z,89.10
2022-11-24T14:19:41.390Z,88.78
2022-11-24T14:22:38.088Z,90.15
2022-11-24T14:25:05.868Z,90.36
2022-11-24T14:27:35.789Z,90.43
2022-11-24T14:30:16.889Z,90.17
2022-11-24T14:33:00.551Z,90.15
2022-11-24T14:35:30.791Z,91.46
2022-11-24T14:37:58.295Z,91.14
2022-11-24T14:40:46.466Z,92.19
2022-11-24T14:43:20.462Z,92.31
2022-11-24T14:46:00.539Z,92.82
2022-11-24T14:48:30.678Z,92.95
2022-11-24T14:51:21.431Z,93.55
2022-11-24T14:53:52.172Z,93.86
2022-11-24T14:56:27.756Z,93.57
2022-11-24T14:58:55.936Z,93.69
2022-11-24T15:01:22.476Z,93.74
2022-11-24T15:07:16.953Z,94.45
2022-11-24T15:09:53.637Z,94.46
2022-11-24T15:12:29.006Z,94.41
2022-11-24T15:15:23.916Z,94.72
2022-11-24T15:17:54.286Z,95.14
2022-11-24T15:20:28.331Z,95.13
2022-11-24T15:23:20.940Z,95.28
2022-11-24T15:25:49.948Z,95.31
2022-11-24T15:28:16.793Z,95.28
2022-11-24T15:30:43.359Z,95.44
2022-11-24T15:33:15.015Z,95.61
2022-11-24T15:35:42.334Z,95.90
2022-11-24T15:38:08.967Z,95.81
2022-11-24T15:40:37.260Z,96.11
2022-11-24T15:43:11.813Z,96.00
2022-11-24T15:45:38.288Z,95.74
2022-11-24T15:48:04.960Z,95.98
2022-11-24T15:50:31.656Z,96.59
2022-11-24T15:52:58.322Z,96.63
2022-11-24T15:55:24.925Z,96.32
2022-11-24T15:57:51.461Z,95.91
2022-11-24T16:00:21.404Z,95.66
2022-11-24T16:02:48.581Z,95.33
2022-11-24T16:05:16.913Z,95.50
2022-11-24T16:07:44.370Z,95.29
2022-11-24T16:10:25.904Z,95.68
2022-11-24T16:12:52.444Z,95.14
2022-11-24T16:15:19.222Z,94.90
2022-11-24T16:17:46.320Z,94.74
2022-11-24T16:20:12.949Z,94.18
2022-11-24T16:22:40.029Z,94.31
2022-11-24T16:25:07.551Z,94.08
2022-11-24T16:27:34.398Z,93.90
2022-11-24T16:30:01.766Z,94.23
2022-11-24T16:32:29.187Z,94.63
2022-11-24T16:34:55.801Z,94.91
2022-11-24T16:37:22.606Z,94.98
2022-11-24T16:39:50.524Z,94.94
2022-11-24T16:42:17.097Z,94.94
2022-11-24T16:44:43.632Z,95.07
2022-11-24T16:47:11.970Z,95.35
2022-11-24T16:49:39.106Z,95.38
2022-11-24T16:52:05.797Z,95.75
2022-11-24T16:54:32.724Z,95.94
2022-11-24T16:56:59.710Z,95.46
2022-11-24T16:59:26.196Z,95.55
2022-11-24T17:01:52.839Z,96.02
2022-11-24T17:04:19.481Z,95.91
2022-11-24T17:06:46.089Z,96.02
2022-11-24T17:09:12.576Z,95.86
2022-11-24T17:11:39.059Z,96.27
2022-11-24T17:14:05.981Z,96.29
2022-11-24T17:16:32.687Z,96.20
2022-11-24T17:18:59.998Z,96.12
2022-11-24T17:21:27.853Z,95.80
2022-11-24T17:23:56.005Z,95.98
2022-11-24T17:26:23.863Z,95.83
2022-11-24T17:28:50.468Z,95.84
2022-11-24T17:31:27.283Z,95.98
2022-11-24T17:33:56.490Z,95.97
2022-11-24T17:36:23.670Z,95.79
2022-11-24T17:38:50.252Z,96.25
2022-11-24T17:41:17.979Z,96.13
2022-11-24T17:43:51.541Z,95.92
2022-11-24T17:46:18.611Z,95.79
2022-11-24T17:48:46.542Z,95.94
2022-11-24T17:51:15.713Z,96.15
2022-11-24T17:53:43.944Z,95.93
2022-11-24T17:56:14.553Z,95.94
2022-11-24T17:58:43.073Z,96.27
2022-11-24T18:01:10.966Z,95.80
2022-11-24T18:03:39.193Z,95.84
2022-11-24T18:06:08.997Z,96.49
2022-11-24T18:08:37.059Z,96.38
2022-11-24T18:11:07.606Z,96.45
2022-11-24T18:13:55.715Z,96.30
2022-11-24T18:16:21.060Z,96.71
2022-11-24T18:18:50.426Z,96.75
2022-11-24T18:21:18.125Z,96.22
2022-11-24T18:23:44.844Z,96.26
2022-11-24T18:26:14.881Z,96.21
2022-11-24T18:28:42.678Z,96.26
2022-11-24T18:31:13.790Z,96.38
2022-11-24T18:33:42.354Z,96.80
2022-11-24T18:36:12.506Z,96.50
2022-11-24T18:38:38.967Z,96.75
2022-11-24T18:41:07.058Z,96.58
2022-11-24T18:43:36.111Z,96.63
2022-11-24T18:46:07.744Z,96.88
2022-11-24T18:48:35.018Z,96.93
2022-11-24T18:51:01.871Z,96.67
2022-11-24T18:53:29.296Z,96.93
2022-11-24T18:55:58.706Z,96.81
2022-11-24T18:58:27.101Z,97.02
2022-11-24T19:00:54.961Z,96.84
2022-11-24T19:03:22.643Z,97.29
2022-11-24T19:05:49.092Z,96.76
2022-11-24T19:08:15.905Z,96.95
2022-11-24T19:10:45.213Z,97.29
2022-11-24T19:13:12.715Z,97.02
2022-11-24T19:15:39.210Z,97.55
2022-11-24T19:18:05.834Z,97.48
2022-11-24T19:20:34.156Z,97.52
2022-11-24T19:23:00.733Z,97.47
2022-11-24T19:25:27.168Z,97.89
2022-11-24T19:27:53.673Z,97.49
2022-11-24T19:30:20.228Z,97.81
2022-11-24T19:32:46.698Z,97.79
2022-11-24T19:35:13.314Z,98.08
2022-11-24T19:37:40.081Z,97.89
2022-11-24T19:40:07.385Z,98.04
2022-11-24T19:42:33.866Z,97.94
2022-11-24T19:45:00.665Z,98.08
2022-11-24T19:47:27.948Z,98.20
2022-11-24T19:49:55.784Z,98.06
2022-11-24T19:52:23.036Z,98.30
2022-11-24T19:54:49.612Z,98.44
2022-11-24T19:57:16.068Z,98.42
2022-11-24T19:59:43.304Z,98.78
2022-11-24T20:02:10.533Z,98.75
2022-11-24T20:04:39.707Z,98.48
2022-11-24T20:07:06.159Z,98.74
2022-11-24T20:09:32.836Z,98.65
2022-11-24T20:11:59.437Z,98.65
2022-11-24T20:14:25.961Z,98.82
2022-11-24T20:16:52.598Z,98.54
2022-11-24T20:19:19.146Z,98.38
2022-11-24T20:21:47.732Z,98.87
2022-11-24T20:24:22.500Z,98.55
2022-11-24T20:26:52.193Z,99.05
2022-11-24T20:29:19.198Z,98.62
2022-11-24T20:31:48.926Z,98.70
2022-11-24T20:34:16.166Z,98.78
2022-11-24T20:36:45.231Z,98.85
2022-11-24T20:39:18.512Z,98.82
2022-11-24T20:41:45.093Z,98.93
2022-11-24T20:44:18.040Z,98.67
2022-11-24T20:46:45.983Z,99.03
2022-11-24T20:49:18.224Z,98.43
2022-11-24T20:51:47.578Z,98.32
2022-11-24T20:54:16.900Z,98.79
2022-11-24T20:56:43.973Z,97.98
2022-11-24T20:59:13.953Z,97.90
2022-11-24T21:01:43.514Z,97.61
2022-11-24T21:04:12.460Z,98.07
2022-11-24T21:06:39.639Z,98.00
2022-11-24T21:09:08.303Z,97.89
2022-11-24T21:11:36.056Z,98.32
2022-11-24T21:14:03.655Z,98.06
2022-11-24T21:16:38.823Z,98.51
2022-11-24T21:19:08.676Z,98.77
2022-11-24T21:21:37.232Z,98.74
2022-11-24T21:24:06.488Z,98.94
2022-11-24T21:26:37.763Z,98.93
2022-11-24T21:29:05.726Z,98.63
2022-11-24T21:31:39.097Z,98.72
2022-11-24T21:34:07.461Z,99.11
2022-11-24T21:36:35.107Z,99.14
2022-11-24T21:39:03.139Z,99.24
2022-11-24T21:41:32.566Z,99.33
2022-11-24T21:43:59.292Z,99.48
2022-11-24T21:46:26.039Z,98.87
2022-11-24T21:48:52.525Z,99.36
2022-11-24T21:51:20.939Z,98.91
2022-11-24T21:53:47.761Z,98.65
2022-11-24T21:56:17.400Z,99.37
2022-11-24T21:58:51.651Z,99.23
2022-11-24T22:01:20.787Z,99.51
2022-11-24T22:03:47.563Z,99.32
2022-11-24T22:06:16.834Z,99.36
2022-11-24T22:08:43.490Z,99.54
2022-11-24T22:11:13.927Z,99.25
2022-11-24T22:13:42.148Z,99.51
2022-11-24T22:16:14.242Z,99.88
2022-11-24T22:18:42.543Z,99.44
2022-11-24T22:21:13.051Z,99.49
2022-11-24T22:23:39.924Z,99.87
2022-11-24T22:26:11.217Z,99.11
2022-11-24T22:28:38.092Z,99.29
2022-11-24T22:31:07.276Z,99.68
2022-11-24T22:33:34.568Z,99.18
2022-11-24T22:36:02.071Z,99.46
2022-11-24T22:38:29.916Z,99.69
2022-11-24T22:41:05.077Z,99.36
2022-11-24T22:43:33.435Z,99.13
2022-11-24T22:46:05.336Z,99.39
2022-11-24T22:48:32.241Z,98.89
2022-11-24T22:51:04.983Z,98.61
2022-11-24T22:53:32.149Z,98.95
2022-11-24T22:56:04.973Z,99.00
2022-11-24T22:58:33.019Z,98.79
2022-11-24T23:01:17.545Z,98.60
2022-11-24T23:03:44.738Z,98.54
2022-11-24T23:06:43.090Z,98.63
2022-11-24T23:09:11.838Z,98.31
2022-11-24T23:11:41.715Z,98.60
2022-11-24T23:14:13.302Z,97.89
2022-11-24T23:16:40.074Z,98.29
2022-11-24T23:19:06.630Z,98.06
2022-11-24T23:21:35.257Z,97.63
2022-11-24T23:24:03.852Z,96.86
2022-11-24T23:26:40.741Z,96.56
2022-11-24T23:29:08.025Z,96.80
2022-11-24T23:31:34.974Z,97.28
2022-11-24T23:34:03.822Z,97.24
2022-11-24T23:36:32.006Z,96.94
2022-11-24T23:39:03.843Z,97.41
2022-11-24T23:41:31.889Z,97.38
2022-11-24T23:43:58.566Z,97.48
2022-11-24T23:46:26.849Z,97.25
2022-11-24T23:48:54.486Z,97.58
2022-11-24T23:51:29.558Z,97.21
2022-11-24T23:53:56.894Z,97.45
2022-11-24T23:56:33.596Z,97.33
2022-11-24T23:59:02.146Z,97.38
